Time;durP1;ratioP1;P1;durP2;ratioP2;P2;SDS_P1;SDS_P2;PMS_P1;PMS_P2;Temp;Humidity;BMP_temperature;BMP_pressure;BME280_temperature;BME280_humidity;BME280_pressure;Samples;Min_cycle;Max_cycle;Signal;HPM_P1;HPM_P2
2023/12/06 00:00:15;;;;;;;4.00;3.35;;;17.70;39.40;;;;;;5070305;28;20048;-69
2023/12/06 00:02:41;;;;;;;4.35;3.95;;;18.20;38.40;;;;;;5070315;28;20136;-67
2023/12/06 00:05:10;;;;;;;3.65;3.10;;;18.80;37.30;;;;;;5070244;28;20044;-69
2023/12/06 00:07:37;;;;;;;4.30;3.42;;;19.60;36.20;;;;;;5070372;28;20080;-68
2023/12/06 00:10:03;;;;;;;5.82;4.40;;;20.20;35.00;;;;;;5070306;28;20043;-67
2023/12/06 00:12:30;;;;;;;3.45;3.15;;;20.80;34.10;;;;;;5070250;28;20040;-67
2023/12/06 00:14:56;;;;;;;3.50;3.20;;;21.30;33.50;;;;;;5071511;28;20535;-68
2023/12/06 00:17:22;;;;;;;3.95;3.58;;;21.70;32.80;;;;;;5070138;28;20120;-69
2023/12/06 00:19:47;;;;;;;4.53;3.97;;;22.10;32.30;;;;;;5071369;28;20045;-69
2023/12/06 00:22:13;;;;;;;3.60;3.20;;;22.40;31.90;;;;;;5071486;28;20037;-68
2023/12/06 00:24:39;;;;;;;3.50;3.20;;;22.60;31.60;;;;;;5070269;28;20041;-68
2023/12/06 00:27:05;;;;;;;3.45;3.15;;;22.80;31.30;;;;;;5071361;28;20037;-68
2023/12/06 00:29:30;;;;;;;3.40;3.10;;;23.00;31.00;;;;;;5070049;28;20047;-68
2023/12/06 00:31:56;;;;;;;3.30;3.00;;;23.20;30.80;;;;;;5071327;28;20032;-68
2023/12/06 00:34:22;;;;;;;3.50;3.20;;;23.30;30.70;;;;;;5070357;28;20117;-68
2023/12/06 00:36:48;;;;;;;3.30;3.00;;;23.40;30.50;;;;;;5070222;28;20047;-68
2023/12/06 00:39:14;;;;;;;3.42;3.13;;;23.50;30.50;;;;;;5071491;28;20044;-68
2023/12/06 00:41:41;;;;;;;3.40;3.05;;;23.60;30.30;;;;;;5070196;28;20327;-68
2023/12/06 00:44:07;;;;;;;3.08;2.58;;;23.60;30.10;;;;;;5071006;28;20060;-68
2023/12/06 00:46:33;;;;;;;3.28;2.97;;;23.80;30.10;;;;;;5086651;28;20074;-68
2023/12/06 00:48:59;;;;;;;3.42;3.13;;;23.80;30.00;;;;;;5069965;28;20043;-68
2023/12/06 00:51:27;;;;;;;3.28;2.63;;;23.90;30.00;;;;;;5071450;28;20043;-70
2023/12/06 00:53:52;;;;;;;3.35;2.92;;;23.90;30.00;;;;;;5073568;28;20476;-68
2023/12/06 00:56:18;;;;;;;2.78;2.53;;;24.00;29.90;;;;;;5073462;28;20111;-68
2023/12/06 00:58:44;;;;;;;3.50;3.20;;;24.10;29.90;;;;;;5073720;28;20044;-68
2023/12/06 01:01:11;;;;;;;3.33;3.03;;;24.10;29.90;;;;;;5073365;28;20624;-68
2023/12/06 01:03:38;;;;;;;3.13;2.72;;;24.10;29.80;;;;;;5056914;28;20458;-68
2023/12/06 01:06:04;;;;;;;4.03;3.67;;;24.20;29.80;;;;;;5073121;28;20049;-69
2023/12/06 01:08:30;;;;;;;3.22;2.92;;;24.20;29.70;;;;;;5073284;28;20058;-68
2023/12/06 01:10:55;;;;;;;3.17;2.42;;;24.20;29.70;;;;;;5073475;28;20451;-68
2023/12/06 01:13:21;;;;;;;3.08;2.80;;;24.20;29.70;;;;;;5073413;28;20036;-69
2023/12/06 01:15:47;;;;;;;2.85;2.58;;;24.20;29.70;;;;;;5073393;28;20472;-70
2023/12/06 01:18:13;;;;;;;3.20;2.47;;;24.20;29.60;;;;;;5073249;28;20484;-68
2023/12/06 01:20:39;;;;;;;3.40;3.10;;;24.30;29.70;;;;;;5073058;28;20094;-68
2023/12/06 01:23:05;;;;;;;3.13;2.83;;;24.30;29.70;;;;;;5074158;28;20048;-68
2023/12/06 01:25:32;;;;;;;3.50;3.13;;;24.30;29.60;;;;;;5073052;28;20543;-68
2023/12/06 01:27:58;;;;;;;3.25;2.80;;;24.30;29.60;;;;;;5074183;28;20036;-68
2023/12/06 01:30:24;;;;;;;3.20;2.63;;;24.30;29.60;;;;;;5074255;28;20048;-68
2023/12/06 01:32:50;;;;;;;3.33;3.03;;;24.30;29.60;;;;;;5072965;28;20128;-68
2023/12/06 01:35:16;;;;;;;2.70;2.50;;;24.40;29.70;;;;;;5073023;28;20141;-68
2023/12/06 01:37:41;;;;;;;2.55;2.35;;;24.40;29.70;;;;;;5072883;28;20510;-69
2023/12/06 01:40:08;;;;;;;3.25;2.95;;;24.40;29.60;;;;;;5074115;28;20037;-69
2023/12/06 01:42:34;;;;;;;3.22;2.53;;;24.40;29.60;;;;;;5072802;28;20048;-68
2023/12/06 01:45:00;;;;;;;3.28;2.45;;;24.40;29.60;;;;;;5072449;28;20063;-67
2023/12/06 01:47:27;;;;;;;3.53;2.80;;;24.40;29.60;;;;;;5072705;28;20036;-68
2023/12/06 01:49:56;;;;;;;3.08;2.78;;;24.40;29.60;;;;;;5072512;28;20072;-68
2023/12/06 01:52:23;;;;;;;3.28;2.70;;;24.30;29.60;;;;;;5072765;28;20040;-68
2023/12/06 01:54:49;;;;;;;3.28;2.40;;;24.30;29.60;;;;;;5073666;28;20040;-68
2023/12/06 01:57:15;;;;;;;3.33;3.03;;;24.40;29.70;;;;;;5072796;28;20118;-68
2023/12/06 01:59:43;;;;;;;2.67;2.45;;;24.40;29.70;;;;;;5073519;28;20127;-68
2023/12/06 02:02:09;;;;;;;2.97;2.70;;;24.40;29.70;;;;;;5073481;28;20090;-68
2023/12/06 02:04:36;;;;;;;2.58;2.15;;;24.40;29.60;;;;;;5073568;28;20055;-68
2023/12/06 02:07:02;;;;;;;2.90;2.47;;;24.40;29.60;;;;;;5072437;28;20045;-68
2023/12/06 02:09:28;;;;;;;2.72;2.40;;;24.40;29.60;;;;;;5072323;28;20302;-68
2023/12/06 02:11:53;;;;;;;3.10;2.47;;;24.50;29.60;;;;;;5072094;28;20041;-68
2023/12/06 02:14:20;;;;;;;2.72;2.50;;;24.50;29.60;;;;;;5072133;28;20036;-68
2023/12/06 02:16:46;;;;;;;3.00;2.70;;;24.40;29.60;;;;;;5071951;28;20076;-68
2023/12/06 02:19:18;;;;;;;3.10;2.85;;;24.50;29.60;;;;;;5071785;28;20098;-68
2023/12/06 02:21:45;;;;;;;2.47;2.28;;;24.50;29.60;;;;;;5072139;28;20052;-68
2023/12/06 02:24:12;;;;;;;2.80;2.55;;;24.40;30.10;;;;;;5071886;28;20185;-68
2023/12/06 02:26:38;;;;;;;2.85;2.50;;;24.50;29.60;;;;;;5071790;28;20051;-69
2023/12/06 02:29:03;;;;;;;3.10;2.60;;;24.40;29.60;;;;;;5072904;28;20040;-68
2023/12/06 02:31:29;;;;;;;3.33;3.03;;;24.40;29.70;;;;;;5071906;28;20036;-70
2023/12/06 02:33:59;;;;;;;2.88;2.53;;;24.40;29.70;;;;;;5071774;28;20041;-69
2023/12/06 02:36:27;;;;;;;2.83;2.20;;;24.40;29.70;;;;;;5071491;28;20119;-68
2023/12/06 02:38:52;;;;;;;2.85;2.53;;;24.40;29.70;;;;;;5071497;28;20041;-69
2023/12/06 02:41:20;;;;;;;2.95;2.38;;;24.40;29.70;;;;;;5072615;28;20050;-68
2023/12/06 02:43:46;;;;;;;2.45;2.25;;;24.30;29.70;;;;;;5072514;28;20446;-69
2023/12/06 02:46:12;;;;;;;2.92;2.45;;;24.30;29.70;;;;;;5071251;28;20127;-68
2023/12/06 02:48:38;;;;;;;3.20;2.90;;;24.30;29.80;;;;;;5072828;28;20045;-68
2023/12/06 02:51:05;;;;;;;2.80;2.47;;;24.30;29.80;;;;;;5071500;28;20039;-68
2023/12/06 02:53:30;;;;;;;3.28;2.55;;;24.30;29.70;;;;;;5072659;28;20044;-68
2023/12/06 02:55:56;;;;;;;3.30;2.95;;;24.30;29.80;;;;;;5071390;28;20113;-68
2023/12/06 02:58:21;;;;;;;3.35;2.40;;;24.30;29.70;;;;;;5072604;28;20063;-68
2023/12/06 03:00:47;;;;;;;2.95;2.58;;;24.30;29.80;;;;;;5072260;28;20036;-69
2023/12/06 03:03:13;;;;;;;3.08;2.42;;;24.30;29.80;;;;;;5070986;28;20040;-68
2023/12/06 03:05:38;;;;;;;2.90;2.35;;;24.30;29.80;;;;;;5072354;28;20382;-68
2023/12/06 03:08:04;;;;;;;2.95;2.60;;;24.30;29.80;;;;;;5071261;28;20044;-69
2023/12/06 03:10:29;;;;;;;3.45;2.80;;;24.30;29.80;;;;;;5072194;28;20047;-68
2023/12/06 03:12:55;;;;;;;3.50;2.67;;;24.40;29.80;;;;;;5071213;28;20487;-69
2023/12/06 03:15:21;;;;;;;2.33;2.13;;;24.30;29.80;;;;;;5070862;28;20414;-68
2023/12/06 03:17:46;;;;;;;3.05;2.10;;;24.30;29.90;;;;;;5071043;28;20036;-70
2023/12/06 03:20:12;;;;;;;2.30;2.10;;;24.20;30.00;;;;;;5072117;28;20043;-69
2023/12/06 03:22:38;;;;;;;2.40;2.17;;;24.20;30.00;;;;;;5072055;28;20277;-68
2023/12/06 03:25:05;;;;;;;2.40;2.20;;;24.20;30.00;;;;;;5072100;28;20036;-70
2023/12/06 03:27:31;;;;;;;3.22;2.13;;;24.20;30.00;;;;;;5070892;28;20059;-70
2023/12/06 03:29:56;;;;;;;2.40;2.20;;;24.20;30.00;;;;;;5070703;28;20040;-68
2023/12/06 03:32:22;;;;;;;2.67;2.30;;;24.20;30.00;;;;;;5071943;28;20044;-69
2023/12/06 03:34:48;;;;;;;2.35;2.13;;;24.20;30.00;;;;;;5070853;28;20041;-68
2023/12/06 03:37:14;;;;;;;2.50;2.13;;;24.20;30.00;;;;;;5070881;28;20122;-68
2023/12/06 03:39:39;;;;;;;1.75;1.65;;;24.20;30.00;;;;;;5070898;28;20036;-68
2023/12/06 03:42:05;;;;;;;2.58;2.38;;;24.20;30.00;;;;;;5070533;28;20046;-69
2023/12/06 03:44:30;;;;;;;1.88;1.73;;;24.20;30.00;;;;;;5070237;28;20048;-68
2023/12/06 03:46:56;;;;;;;2.42;2.22;;;24.20;30.00;;;;;;5070404;28;20041;-68
2023/12/06 03:49:22;;;;;;;2.35;2.15;;;24.20;30.00;;;;;;5070498;28;20044;-68
2023/12/06 03:51:47;;;;;;;2.70;2.47;;;24.30;30.00;;;;;;5070706;28;20041;-68
2023/12/06 03:54:13;;;;;;;2.47;2.28;;;24.30;30.00;;;;;;5070449;28;20369;-68
2023/12/06 03:56:38;;;;;;;2.60;2.40;;;24.30;30.00;;;;;;5070684;28;20036;-68
2023/12/06 03:59:06;;;;;;;2.10;1.92;;;24.30;30.00;;;;;;5071675;28;20063;-68
2023/12/06 04:01:31;;;;;;;2.90;2.33;;;24.30;30.00;;;;;;5070280;28;20059;-70
2023/12/06 04:03:57;;;;;;;3.05;2.63;;;24.20;30.00;;;;;;5070255;28;20041;-68
2023/12/06 04:06:22;;;;;;;2.20;2.00;;;24.20;30.00;;;;;;5071622;28;20083;-69
2023/12/06 04:08:48;;;;;;;2.20;2.00;;;24.20;30.00;;;;;;5071799;28;20423;-68
2023/12/06 04:11:14;;;;;;;3.08;2.40;;;24.20;30.00;;;;;;5071674;28;20278;-68
2023/12/06 04:13:39;;;;;;;2.28;1.98;;;24.20;30.00;;;;;;5070522;28;20036;-68
2023/12/06 04:16:06;;;;;;;2.25;2.05;;;24.20;30.10;;;;;;5071555;28;20041;-68
2023/12/06 04:18:32;;;;;;;2.22;1.65;;;24.10;30.10;;;;;;5070165;28;20102;-68
2023/12/06 04:20:57;;;;;;;2.10;1.70;;;24.10;30.10;;;;;;5070495;28;20040;-69
2023/12/06 04:23:23;;;;;;;3.28;2.50;;;24.10;30.10;;;;;;5070346;28;20048;-70
2023/12/06 04:25:49;;;;;;;2.50;2.22;;;24.10;30.20;;;;;;5071552;28;20037;-68
2023/12/06 04:28:14;;;;;;;2.00;1.80;;;24.10;30.20;;;;;;5073273;28;20033;-69
2023/12/06 04:30:40;;;;;;;2.00;1.70;;;24.10;30.20;;;;;;5074015;28;20040;-68
2023/12/06 04:33:05;;;;;;;2.35;2.13;;;24.10;30.30;;;;;;5074168;28;20040;-68
2023/12/06 04:35:31;;;;;;;2.78;2.00;;;24.00;30.30;;;;;;5073781;28;20503;-68
2023/12/06 04:37:57;;;;;;;2.28;2.00;;;24.00;30.30;;;;;;5090690;28;20073;-69
2023/12/06 04:40:22;;;;;;;1.92;1.67;;;24.00;30.40;;;;;;5075187;28;20033;-69
2023/12/06 04:42:48;;;;;;;2.20;1.80;;;24.00;30.40;;;;;;5075155;28;20046;-69
2023/12/06 04:45:14;;;;;;;2.80;1.90;;;24.00;30.40;;;;;;5073452;28;20055;-70
2023/12/06 04:47:39;;;;;;;2.10;1.63;;;24.00;30.40;;;;;;5074864;28;20047;-69
2023/12/06 04:50:06;;;;;;;3.08;2.28;;;24.00;30.50;;;;;;5073780;28;20070;-68
2023/12/06 04:52:32;;;;;;;2.60;2.25;;;24.00;30.50;;;;;;5074828;28;20033;-68
2023/12/06 04:54:58;;;;;;;2.30;2.10;;;24.00;30.50;;;;;;5074964;28;20476;-68
2023/12/06 04:57:23;;;;;;;2.33;1.80;;;24.00;30.50;;;;;;5075171;28;20074;-70
2023/12/06 04:59:49;;;;;;;2.67;1.67;;;24.00;30.50;;;;;;5073736;28;20457;-68
2023/12/06 05:02:15;;;;;;;2.13;1.88;;;23.90;30.50;;;;;;5074725;28;20036;-69
2023/12/06 05:04:40;;;;;;;2.58;2.10;;;23.90;30.50;;;;;;5073220;28;20056;-68
2023/12/06 05:07:06;;;;;;;2.13;1.92;;;23.90;30.50;;;;;;5073478;28;20072;-69
2023/12/06 05:09:32;;;;;;;1.90;1.45;;;24.00;30.50;;;;;;5074695;28;20046;-68
2023/12/06 05:11:57;;;;;;;2.00;1.70;;;24.00;30.40;;;;;;5073601;28;20037;-69
2023/12/06 05:14:23;;;;;;;1.80;1.65;;;24.10;30.30;;;;;;5073413;28;20036;-70
2023/12/06 05:16:48;;;;;;;2.35;1.80;;;24.10;30.30;;;;;;5074488;28;20033;-70
2023/12/06 05:19:14;;;;;;;2.15;1.65;;;24.20;30.30;;;;;;5073126;28;20040;-69
2023/12/06 05:21:39;;;;;;;2.33;2.10;;;24.20;30.20;;;;;;5074220;28;20043;-69
2023/12/06 05:24:05;;;;;;;1.60;1.42;;;24.30;30.20;;;;;;5074115;28;20439;-68
2023/12/06 05:26:31;;;;;;;1.38;1.27;;;24.30;30.00;;;;;;5072941;28;20506;-68
2023/12/06 05:28:58;;;;;;;2.38;2.03;;;24.30;30.00;;;;;;5073273;28;20178;-68
2023/12/06 05:31:24;;;;;;;1.80;1.63;;;24.40;30.00;;;;;;5073113;28;20043;-68
2023/12/06 05:33:49;;;;;;;1.70;1.45;;;24.30;30.00;;;;;;5073227;28;20036;-70
2023/12/06 05:36:15;;;;;;;2.67;1.85;;;24.30;30.00;;;;;;5072974;28;20089;-68
2023/12/06 05:38:40;;;;;;;1.65;1.55;;;24.30;30.10;;;;;;5072357;28;20045;-68
2023/12/06 05:41:06;;;;;;;2.03;1.40;;;24.30;30.10;;;;;;5072650;28;20123;-68
2023/12/06 05:43:32;;;;;;;2.55;1.90;;;24.20;30.10;;;;;;5072681;28;20044;-68
2023/12/06 05:45:58;;;;;;;2.30;1.75;;;24.10;30.10;;;;;;5072608;28;20052;-68
2023/12/06 05:48:24;;;;;;;2.65;1.85;;;24.10;30.20;;;;;;5072573;28;20530;-68
2023/12/06 05:50:49;;;;;;;1.50;1.40;;;24.10;30.30;;;;;;5072738;28;20040;-68
2023/12/06 05:53:15;;;;;;;1.75;1.65;;;24.10;30.30;;;;;;5072653;28;20043;-68
2023/12/06 05:55:40;;;;;;;1.88;1.60;;;24.10;30.40;;;;;;5073597;28;20102;-67
2023/12/06 05:58:06;;;;;;;1.70;1.40;;;24.10;30.40;;;;;;5072418;28;20049;-68
2023/12/06 06:00:32;;;;;;;1.90;1.65;;;24.10;30.40;;;;;;5073654;28;20036;-68
2023/12/06 06:02:59;;;;;;;2.40;1.27;;;24.00;30.40;;;;;;5072223;28;20048;-68
2023/12/06 06:05:24;;;;;;;1.95;1.70;;;24.00;30.40;;;;;;5073459;28;20044;-68
2023/12/06 06:07:50;;;;;;;1.52;1.10;;;24.00;30.40;;;;;;5072080;28;20048;-68
2023/12/06 06:10:16;;;;;;;1.55;1.20;;;24.10;30.40;;;;;;5072153;28;20040;-69
2023/12/06 06:12:41;;;;;;;2.33;1.33;;;24.00;30.40;;;;;;5072239;28;20062;-69
2023/12/06 06:15:08;;;;;;;1.85;1.67;;;24.10;30.40;;;;;;5073347;28;20051;-68
2023/12/06 06:17:34;;;;;;;1.65;1.45;;;24.10;30.40;;;;;;5073294;28;20130;-69
2023/12/06 06:20:00;;;;;;;2.33;1.60;;;24.10;30.30;;;;;;5071984;28;20052;-69
2023/12/06 06:22:27;;;;;;;2.17;1.55;;;24.10;30.30;;;;;;5071812;28;20048;-68
2023/12/06 06:24:52;;;;;;;2.30;1.48;;;24.10;30.30;;;;;;5070874;28;20052;-68
2023/12/06 06:27:18;;;;;;;1.85;1.42;;;24.10;30.30;;;;;;5072988;28;20044;-68
2023/12/06 06:29:44;;;;;;;1.98;1.77;;;24.10;30.30;;;;;;5071716;28;20045;-68
2023/12/06 06:32:10;;;;;;;1.60;1.27;;;24.10;30.30;;;;;;5071731;28;20036;-68
2023/12/06 06:34:36;;;;;;;3.05;1.60;;;24.10;30.30;;;;;;5070196;28;20041;-66
2023/12/06 06:37:02;;;;;;;2.20;2.00;;;24.10;30.90;;;;;;5061091;28;20385;-69
2023/12/06 06:39:28;;;;;;;2.53;1.92;;;23.80;31.60;;;;;;5058792;28;20326;-69
2023/12/06 06:41:57;;;;;;;2.72;2.53;;;23.50;32.30;;;;;;5063350;28;20098;-67
2023/12/06 06:44:23;;;;;;;2.38;2.17;;;23.30;32.90;;;;;;5066676;28;20070;-70
2023/12/06 06:46:48;;;;;;;2.08;1.83;;;23.20;33.30;;;;;;5065500;28;20037;-69
2023/12/06 06:49:14;;;;;;;2.03;1.67;;;23.20;33.40;;;;;;5067138;28;20473;-69
2023/12/06 06:51:40;;;;;;;1.92;1.70;;;23.20;33.50;;;;;;5068954;28;20237;-70
2023/12/06 06:54:07;;;;;;;2.60;2.28;;;23.30;33.50;;;;;;5084030;28;20386;-70
2023/12/06 06:56:33;;;;;;;2.25;1.40;;;23.50;33.50;;;;;;5065319;28;20051;-68
2023/12/06 06:59:00;;;;;;;2.30;1.67;;;23.60;33.20;;;;;;5066704;28;20036;-69
2023/12/06 07:01:26;;;;;;;1.52;1.38;;;23.90;32.80;;;;;;5094033;28;20111;-68
2023/12/06 07:03:53;;;;;;;2.55;1.13;;;24.40;32.20;;;;;;5068075;28;20070;-69
2023/12/06 07:06:18;;;;;;;2.50;1.20;;;24.80;31.50;;;;;;5068423;28;20101;-69
2023/12/06 07:08:44;;;;;;;1.52;1.00;;;25.20;30.90;;;;;;5067188;28;20044;-69
2023/12/06 07:11:10;;;;;;;1.90;1.05;;;25.50;30.60;;;;;;5067913;28;20024;-69
2023/12/06 07:13:36;;;;;;;2.00;1.40;;;25.70;30.30;;;;;;5095834;28;20044;-69
2023/12/06 07:16:02;;;;;;;1.27;0.90;;;25.70;30.10;;;;;;5093751;28;20040;-69
2023/12/06 07:18:28;;;;;;;1.88;1.48;;;25.60;30.10;;;;;;5062290;28;20044;-67
2023/12/06 07:20:54;;;;;;;1.40;1.30;;;25.50;30.20;;;;;;5062237;28;20037;-68
2023/12/06 07:23:19;;;;;;;1.95;1.30;;;25.30;30.40;;;;;;5053732;28;20041;-67
2023/12/06 07:25:46;;;;;;;1.45;1.08;;;25.10;30.60;;;;;;5053596;28;20098;-68
2023/12/06 07:28:12;;;;;;;1.88;1.50;;;24.80;30.90;;;;;;5058832;28;20054;-68
2023/12/06 07:30:38;;;;;;;1.52;1.30;;;24.60;31.30;;;;;;5075834;28;20044;-66
2023/12/06 07:33:04;;;;;;;1.73;1.38;;;24.30;31.70;;;;;;5090226;28;20380;-68
2023/12/06 07:35:30;;;;;;;2.53;1.45;;;24.10;31.90;;;;;;5059923;28;20034;-66
2023/12/06 07:37:55;;;;;;;1.58;1.25;;;23.90;32.20;;;;;;5060122;28;20451;-68
2023/12/06 07:40:22;;;;;;;2.10;1.30;;;23.80;32.40;;;;;;5058613;28;20044;-66
2023/12/06 07:42:48;;;;;;;1.92;1.73;;;23.70;32.50;;;;;;5058958;28;20526;-68
2023/12/06 07:45:14;;;;;;;2.15;1.30;;;23.60;32.60;;;;;;5059100;28;20150;-66
2023/12/06 07:47:40;;;;;;;2.58;1.02;;;23.60;32.60;;;;;;5062768;28;20523;-67
2023/12/06 07:50:07;;;;;;;1.95;1.60;;;23.60;32.60;;;;;;5060441;28;20051;-68
2023/12/06 07:52:33;;;;;;;1.17;0.85;;;23.60;32.60;;;;;;5056693;28;20029;-68
2023/12/06 07:54:59;;;;;;;1.55;1.10;;;23.70;32.50;;;;;;5059822;28;20036;-68
2023/12/06 07:57:28;;;;;;;1.52;0.98;;;23.80;32.30;;;;;;5061203;28;20056;-68
2023/12/06 07:59:55;;;;;;;1.63;1.30;;;23.90;32.10;;;;;;5093037;28;20098;-66
2023/12/06 08:02:22;;;;;;;2.58;1.20;;;24.10;31.90;;;;;;5065742;28;20048;-67
2023/12/06 08:04:47;;;;;;;1.33;1.00;;;24.20;31.60;;;;;;5098915;28;20595;-68
2023/12/06 08:07:13;;;;;;;1.45;1.23;;;24.30;31.40;;;;;;5067212;28;20120;-68
2023/12/06 08:09:39;;;;;;;1.80;1.10;;;24.50;31.30;;;;;;5065002;28;20495;-68
2023/12/06 08:12:06;;;;;;;2.88;1.40;;;24.60;31.20;;;;;;5065582;28;20029;-68
2023/12/06 08:14:32;;;;;;;1.30;0.85;;;24.60;31.10;;;;;;5065267;28;20044;-68
2023/12/06 08:16:57;;;;;;;3.15;1.30;;;24.60;31.10;;;;;;5063867;28;20044;-69
2023/12/06 08:19:23;;;;;;;1.60;1.10;;;24.50;31.10;;;;;;5065768;28;20119;-68
2023/12/06 08:21:49;;;;;;;1.98;1.17;;;24.50;31.30;;;;;;5065921;28;20059;-67
2023/12/06 08:24:15;;;;;;;2.13;1.10;;;24.30;31.40;;;;;;5063469;28;20681;-68
2023/12/06 08:26:42;;;;;;;1.35;1.00;;;24.20;31.50;;;;;;5063474;28;20047;-68
2023/12/06 08:29:09;;;;;;;1.55;0.90;;;24.10;31.70;;;;;;5065546;28;20036;-68
2023/12/06 08:31:36;;;;;;;2.08;1.45;;;24.10;31.80;;;;;;5098319;28;20040;-68
2023/12/06 08:34:02;;;;;;;1.55;1.08;;;24.00;31.90;;;;;;5063073;28;20468;-68
2023/12/06 08:36:28;;;;;;;2.30;1.17;;;23.90;31.90;;;;;;5053673;28;20055;-67
2023/12/06 08:38:53;;;;;;;1.65;1.20;;;23.80;32.00;;;;;;5053679;28;20032;-68
2023/12/06 08:41:19;;;;;;;2.38;1.17;;;23.80;32.10;;;;;;5062238;28;20051;-68
2023/12/06 08:43:46;;;;;;;1.40;1.10;;;23.80;32.20;;;;;;5049056;28;20083;-69
2023/12/06 08:46:11;;;;;;;1.98;0.90;;;23.80;32.20;;;;;;5048715;28;20170;-67
2023/12/06 08:48:37;;;;;;;1.92;0.98;;;23.80;32.20;;;;;;5058117;28;20042;-68
2023/12/06 08:51:03;;;;;;;1.80;1.20;;;23.80;32.10;;;;;;5061087;28;20056;-67
2023/12/06 08:53:29;;;;;;;1.65;0.95;;;23.90;32.00;;;;;;5062251;28;20063;-66
2023/12/06 08:55:56;;;;;;;1.60;0.93;;;24.00;31.90;;;;;;5062634;28;20040;-66
2023/12/06 08:58:22;;;;;;;2.40;1.13;;;24.10;31.80;;;;;;5059285;28;20053;-67
2023/12/06 09:00:48;;;;;;;1.60;0.88;;;24.20;31.70;;;;;;5062711;28;20078;-67
2023/12/06 09:03:14;;;;;;;1.85;1.13;;;24.20;31.50;;;;;;5061972;28;20044;-67
2023/12/06 09:05:40;;;;;;;1.65;0.77;;;24.40;31.50;;;;;;5060438;28;20040;-67
2023/12/06 09:08:06;;;;;;;1.50;0.90;;;24.40;31.40;;;;;;5059592;28;20038;-67
2023/12/06 09:10:32;;;;;;;1.63;1.10;;;24.40;31.40;;;;;;5062944;28;20476;-67
2023/12/06 09:12:57;;;;;;;1.65;0.98;;;24.30;31.40;;;;;;5057090;28;20090;-67
2023/12/06 09:15:23;;;;;;;1.38;0.88;;;24.30;31.50;;;;;;5062580;28;20041;-68
2023/12/06 09:17:49;;;;;;;2.13;0.95;;;24.30;31.50;;;;;;5061473;28;20044;-68
2023/12/06 09:20:15;;;;;;;4.38;1.02;;;24.20;31.60;;;;;;5061526;28;20028;-68
2023/12/06 09:22:41;;;;;;;1.88;0.90;;;24.20;31.80;;;;;;5062718;28;20445;-69
2023/12/06 09:25:07;;;;;;;4.22;1.30;;;24.10;32.00;;;;;;5059345;28;20047;-68
2023/12/06 09:27:33;;;;;;;5.13;1.50;;;23.90;32.10;;;;;;5093255;28;20053;-68
2023/12/06 09:30:03;;;;;;;2.42;0.75;;;23.80;32.30;;;;;;5060489;28;20052;-67
2023/12/06 09:32:29;;;;;;;6.43;1.20;;;23.80;32.40;;;;;;5090609;28;20040;-67
2023/12/06 09:34:55;;;;;;;3.38;1.30;;;23.70;32.40;;;;;;5056240;28;20548;-66
2023/12/06 09:37:21;;;;;;;3.38;1.20;;;23.80;32.40;;;;;;5057833;28;20039;-66
2023/12/06 09:39:46;;;;;;;2.20;0.73;;;23.80;32.40;;;;;;5061102;28;20047;-69
2023/12/06 09:42:12;;;;;;;3.22;0.98;;;23.70;32.30;;;;;;5061169;28;20044;-68
2023/12/06 09:44:39;;;;;;;2.22;1.02;;;23.80;32.30;;;;;;5062452;28;20503;-68
2023/12/06 09:47:05;;;;;;;3.35;1.20;;;23.90;32.30;;;;;;5059314;28;20136;-67
2023/12/06 09:49:30;;;;;;;2.72;1.13;;;23.90;32.10;;;;;;5061731;28;20105;-67
2023/12/06 09:52:07;;;;;;;1.60;0.75;;;24.00;32.00;;;;;;5057534;28;20072;-66
2023/12/06 09:54:32;;;;;;;4.55;1.02;;;24.00;32.00;;;;;;5089007;28;20090;-67
2023/12/06 09:56:58;;;;;;;1.38;0.73;;;24.10;31.90;;;;;;5090543;28;20036;-68
2023/12/06 09:59:24;;;;;;;1.88;1.40;;;24.20;31.90;;;;;;5056456;28;20036;-68
2023/12/06 10:01:49;;;;;;;4.25;1.02;;;24.20;31.90;;;;;;5056979;28;20036;-67
2023/12/06 10:04:15;;;;;;;2.10;1.10;;;24.20;31.80;;;;;;5058760;28;20044;-67
2023/12/06 10:06:42;;;;;;;4.43;1.02;;;24.30;31.80;;;;;;5058101;28;20033;-67
2023/12/06 10:09:10;;;;;;;2.03;1.00;;;24.20;31.80;;;;;;5058238;28;20539;-67
2023/12/06 10:11:36;;;;;;;1.52;1.05;;;24.30;31.90;;;;;;5061513;28;20043;-67
2023/12/06 10:14:02;;;;;;;1.77;0.90;;;24.20;31.90;;;;;;5071402;28;20043;-67
2023/12/06 10:16:28;;;;;;;2.45;0.73;;;24.20;32.00;;;;;;5094444;28;20152;-67
2023/12/06 10:18:54;;;;;;;2.85;1.60;;;24.20;32.10;;;;;;5062853;28;20040;-68
2023/12/06 10:21:20;;;;;;;3.05;0.80;;;24.10;32.00;;;;;;5094116;28;20106;-67
2023/12/06 10:24:01;;;;;;;2.13;0.88;;;24.10;32.10;;;;;;5090872;28;20075;-67
2023/12/06 10:26:29;;;;;;;3.22;0.73;;;24.10;32.20;;;;;;5062882;28;20040;-68
2023/12/06 10:28:55;;;;;;;2.03;0.90;;;24.10;32.20;;;;;;5063790;28;20740;-67
2023/12/06 10:31:20;;;;;;;1.38;0.80;;;24.00;32.20;;;;;;5053027;28;20047;-66
2023/12/06 10:33:53;;;;;;;2.35;1.60;;;24.00;32.20;;;;;;5071305;28;20044;-67
2023/12/06 10:36:20;;;;;;;3.13;2.58;;;24.00;32.60;;;;;;5061581;28;20036;-65
2023/12/06 10:38:46;;;;;;;4.80;1.92;;;23.80;33.70;;;;;;5054633;28;20040;-66
2023/12/06 10:41:16;;;;;;;3.20;1.63;;;23.60;34.40;;;;;;5058331;28;20097;-67
2023/12/06 10:43:43;;;;;;;2.63;1.77;;;23.60;34.70;;;;;;5093874;28;20036;-67
2023/12/06 10:46:11;;;;;;;2.40;1.92;;;23.70;34.60;;;;;;5094788;28;20052;-66
2023/12/06 10:48:38;;;;;;;6.05;1.75;;;23.90;34.70;;;;;;5065021;28;20408;-66
2023/12/06 10:51:05;;;;;;;4.35;2.35;;;24.00;34.60;;;;;;5067521;28;20369;-67
2023/12/06 10:53:32;;;;;;;3.65;1.55;;;24.20;34.60;;;;;;5066543;28;20122;-67
2023/12/06 10:55:59;;;;;;;3.95;1.65;;;24.40;34.40;;;;;;5090739;28;20075;-66
2023/12/06 10:58:25;;;;;;;3.65;1.25;;;24.60;34.00;;;;;;5061010;28;20087;-67
2023/12/06 11:00:52;;;;;;;3.75;1.30;;;24.90;33.60;;;;;;5060099;28;20044;-65
2023/12/06 11:03:18;;;;;;;3.13;1.17;;;25.10;33.10;;;;;;5062213;28;20047;-66
2023/12/06 11:05:50;;;;;;;4.32;1.02;;;25.20;32.90;;;;;;5060064;28;20065;-67
2023/12/06 11:11:38;;;;;;;3.25;1.35;;;25.30;32.80;;;;;;5049899;28;20434;-66
2023/12/06 11:17:32;;;;;;;3.75;1.30;;;25.00;33.20;;;;;;5142958;27;20886;-67
2023/12/06 11:19:59;;;;;;;2.00;0.90;;;24.70;33.40;;;;;;5112522;27;21025;-67
2023/12/06 11:22:25;;;;;;;1.40;0.82;;;24.50;33.80;;;;;;5120724;27;20039;-68
2023/12/06 11:24:53;;;;;;;2.38;1.20;;;24.30;34.20;;;;;;5116755;27;20043;-67
2023/12/06 11:27:21;;;;;;;3.40;1.17;;;24.10;34.60;;;;;;5119072;27;20171;-68
2023/12/06 11:29:48;;;;;;;1.92;1.20;;;23.90;34.80;;;;;;5151544;27;20605;-68
2023/12/06 11:32:14;;;;;;;2.60;0.80;;;23.70;35.20;;;;;;5129460;27;20037;-68
2023/12/06 11:34:40;;;;;;;1.63;0.70;;;23.60;35.30;;;;;;5137535;27;20482;-67
2023/12/06 11:37:16;;;;;;;9.70;2.30;;;23.50;35.40;;;;;;5141281;27;20037;-67
2023/12/06 11:39:46;;;;;;;4.55;2.40;;;23.50;34.90;;;;;;5136502;27;20042;-67
2023/12/06 11:42:17;;;;;;;3.05;1.90;;;23.40;34.60;;;;;;5133436;27;20045;-67
2023/12/06 11:44:58;;;;;;;3.92;1.48;;;23.30;34.30;;;;;;5130009;27;20047;-66
2023/12/06 11:47:25;;;;;;;4.90;2.15;;;23.40;34.40;;;;;;5136763;27;20031;-67
2023/12/06 11:49:52;;;;;;;2.47;1.48;;;23.50;34.40;;;;;;5137704;27;20039;-67
2023/12/06 11:52:18;;;;;;;2.30;1.55;;;23.60;34.20;;;;;;5141803;27;20042;-69
2023/12/06 11:54:45;;;;;;;4.38;1.50;;;23.70;34.10;;;;;;5141718;27;20031;-67
2023/12/06 11:57:11;;;;;;;2.72;1.15;;;23.90;33.90;;;;;;5139143;27;20070;-67
2023/12/06 11:59:39;;;;;;;3.88;1.30;;;24.10;33.60;;;;;;5139472;27;20050;-65
2023/12/06 12:02:06;;;;;;;4.00;1.13;;;24.20;33.50;;;;;;5141110;27;20235;-67
2023/12/06 12:04:33;;;;;;;1.30;1.08;;;24.60;33.30;;;;;;5136055;27;20058;-67
2023/12/06 12:07:00;;;;;;;2.30;1.05;;;25.10;32.80;;;;;;5138943;27;20131;-66
2023/12/06 12:09:26;;;;;;;1.65;1.20;;;25.50;32.30;;;;;;5137884;27;20035;-66
2023/12/06 12:11:52;;;;;;;3.00;1.40;;;25.80;31.90;;;;;;5135519;27;20042;-66
2023/12/06 12:14:18;;;;;;;1.63;0.88;;;25.90;31.70;;;;;;5138524;27;20038;-67
2023/12/06 12:16:47;;;;;;;2.35;0.80;;;25.90;31.70;;;;;;5132219;27;20047;-67
2023/12/06 12:19:13;;;;;;;6.30;1.40;;;25.80;31.80;;;;;;5123427;27;20051;-67
2023/12/06 12:21:39;;;;;;;4.63;1.33;;;25.50;31.70;;;;;;5133441;27;20035;-66
2023/12/06 12:24:06;;;;;;;1.65;1.00;;;25.10;32.00;;;;;;5132467;27;20039;-68
2023/12/06 12:26:32;;;;;;;2.55;0.80;;;24.80;32.60;;;;;;5141377;27;20475;-65
2023/12/06 12:28:58;;;;;;;3.42;1.40;;;24.60;33.10;;;;;;5129121;27;20045;-65
2023/12/06 12:31:28;;;;;;;6.88;1.40;;;24.30;33.50;;;;;;5119697;27;20039;-67
2023/12/06 12:33:55;;;;;;;4.97;0.80;;;24.10;33.80;;;;;;5130503;27;20039;-67
2023/12/06 12:36:21;;;;;;;2.38;1.13;;;23.90;34.30;;;;;;5131967;27;20048;-67
2023/12/06 12:38:47;;;;;;;4.25;2.10;;;23.60;34.30;;;;;;5131824;27;20462;-66
2023/12/06 12:41:13;;;;;;;2.88;1.50;;;23.30;34.40;;;;;;5127070;27;20501;-67
2023/12/06 12:43:39;;;;;;;3.38;1.33;;;23.20;34.80;;;;;;5127227;27;20061;-68
2023/12/06 12:46:05;;;;;;;1.63;1.10;;;23.20;35.00;;;;;;5132329;27;20039;-68
2023/12/06 12:48:30;;;;;;;5.15;1.70;;;23.30;34.80;;;;;;5131800;27;20038;-68